sensor_id;sensor_type;location;lat;lon;timestamp;P1;durP1;ratioP1;P2;durP2;ratioP2
19329;SDS011;9799;48.214;16.388;2023-04-30T00:03:17;7.77;;;7.00;;
19329;SDS011;9799;48.214;16.388;2023-04-30T00:06:39;8.80;;;6.70;;
19329;SDS011;9799;48.214;16.388;2023-04-30T00:10:01;6.73;;;6.07;;
19329;SDS011;9799;48.214;16.388;2023-04-30T00:13:23;6.13;;;5.53;;
19329;SDS011;9799;48.214;16.388;2023-04-30T00:16:44;7.00;;;6.30;;
19329;SDS011;9799;48.214;16.388;2023-04-30T00:20:06;6.80;;;6.13;;
19329;SDS011;9799;48.214;16.388;2023-04-30T00:23:28;7.43;;;6.40;;
19329;SDS011;9799;48.214;16.388;2023-04-30T00:26:50;6.17;;;5.57;;
19329;SDS011;9799;48.214;16.388;2023-04-30T00:30:11;7.00;;;6.17;;
19329;SDS011;9799;48.214;16.388;2023-04-30T00:33:33;7.63;;;6.27;;
19329;SDS011;9799;48.214;16.388;2023-04-30T00:36:54;7.37;;;6.60;;
19329;SDS011;9799;48.214;16.388;2023-04-30T00:40:15;7.73;;;6.77;;
19329;SDS011;9799;48.214;16.388;2023-04-30T00:43:37;7.90;;;7.03;;
19329;SDS011;9799;48.214;16.388;2023-04-30T00:46:59;9.07;;;7.63;;
19329;SDS011;9799;48.214;16.388;2023-04-30T00:50:20;10.20;;;7.87;;
19329;SDS011;9799;48.214;16.388;2023-04-30T00:53:42;8.47;;;7.03;;
19329;SDS011;9799;48.214;16.388;2023-04-30T00:57:03;8.23;;;7.27;;
19329;SDS011;9799;48.214;16.388;2023-04-30T01:00:28;10.50;;;8.30;;
19329;SDS011;9799;48.214;16.388;2023-04-30T01:03:49;9.87;;;8.87;;
19329;SDS011;9799;48.214;16.388;2023-04-30T01:07:11;9.77;;;8.57;;
19329;SDS011;9799;48.214;16.388;2023-04-30T01:10:34;11.80;;;8.70;;
19329;SDS011;9799;48.214;16.388;2023-04-30T01:14:03;9.43;;;7.90;;
19329;SDS011;9799;48.214;16.388;2023-04-30T01:17:31;10.13;;;7.83;;
19329;SDS011;9799;48.214;16.388;2023-04-30T01:20:58;9.63;;;7.80;;
19329;SDS011;9799;48.214;16.388;2023-04-30T01:24:27;10.40;;;8.00;;
19329;SDS011;9799;48.214;16.388;2023-04-30T01:28:03;8.33;;;7.10;;
19329;SDS011;9799;48.214;16.388;2023-04-30T01:31:26;9.27;;;7.90;;
19329;SDS011;9799;48.214;16.388;2023-04-30T01:34:48;10.53;;;8.00;;
19329;SDS011;9799;48.214;16.388;2023-04-30T01:38:11;8.67;;;7.73;;
19329;SDS011;9799;48.214;16.388;2023-04-30T01:41:44;12.90;;;8.67;;
19329;SDS011;9799;48.214;16.388;2023-04-30T01:45:17;10.50;;;9.27;;
19329;SDS011;9799;48.214;16.388;2023-04-30T01:48:49;11.30;;;9.77;;
19329;SDS011;9799;48.214;16.388;2023-04-30T01:52:15;13.30;;;11.00;;
19329;SDS011;9799;48.214;16.388;2023-04-30T01:55:40;13.27;;;9.80;;
19329;SDS011;9799;48.214;16.388;2023-04-30T01:59:03;11.90;;;9.97;;
19329;SDS011;9799;48.214;16.388;2023-04-30T02:02:26;10.30;;;9.20;;
19329;SDS011;9799;48.214;16.388;2023-04-30T02:05:48;13.93;;;10.43;;
19329;SDS011;9799;48.214;16.388;2023-04-30T02:09:10;13.03;;;10.17;;
19329;SDS011;9799;48.214;16.388;2023-04-30T02:12:31;14.83;;;11.33;;
19329;SDS011;9799;48.214;16.388;2023-04-30T02:15:52;15.93;;;11.57;;
19329;SDS011;9799;48.214;16.388;2023-04-30T02:19:14;13.30;;;11.33;;
19329;SDS011;9799;48.214;16.388;2023-04-30T02:22:36;13.87;;;11.37;;
19329;SDS011;9799;48.214;16.388;2023-04-30T02:25:57;11.50;;;10.30;;
19329;SDS011;9799;48.214;16.388;2023-04-30T02:29:18;14.17;;;10.87;;
19329;SDS011;9799;48.214;16.388;2023-04-30T02:32:39;14.20;;;11.27;;
19329;SDS011;9799;48.214;16.388;2023-04-30T02:36:02;13.97;;;11.13;;
19329;SDS011;9799;48.214;16.388;2023-04-30T02:39:23;14.40;;;10.90;;
19329;SDS011;9799;48.214;16.388;2023-04-30T02:42:44;13.50;;;11.03;;
19329;SDS011;9799;48.214;16.388;2023-04-30T02:46:06;12.53;;;11.23;;
19329;SDS011;9799;48.214;16.388;2023-04-30T02:49:27;15.47;;;11.70;;
19329;SDS011;9799;48.214;16.388;2023-04-30T02:52:50;14.97;;;11.60;;
19329;SDS011;9799;48.214;16.388;2023-04-30T02:56:11;13.33;;;11.07;;
19329;SDS011;9799;48.214;16.388;2023-04-30T02:59:32;13.97;;;11.77;;
19329;SDS011;9799;48.214;16.388;2023-04-30T03:02:53;13.07;;;11.37;;
19329;SDS011;9799;48.214;16.388;2023-04-30T03:06:14;13.33;;;11.33;;
19329;SDS011;9799;48.214;16.388;2023-04-30T03:09:37;16.07;;;11.33;;
19329;SDS011;9799;48.214;16.388;2023-04-30T03:12:58;14.37;;;11.73;;
19329;SDS011;9799;48.214;16.388;2023-04-30T03:16:20;15.27;;;11.97;;
19329;SDS011;9799;48.214;16.388;2023-04-30T03:19:41;14.20;;;11.93;;
19329;SDS011;9799;48.214;16.388;2023-04-30T03:23:02;13.20;;;11.37;;
19329;SDS011;9799;48.214;16.388;2023-04-30T03:26:25;13.07;;;11.67;;
19329;SDS011;9799;48.214;16.388;2023-04-30T03:29:46;12.47;;;11.20;;
19329;SDS011;9799;48.214;16.388;2023-04-30T03:33:07;14.27;;;11.97;;
19329;SDS011;9799;48.214;16.388;2023-04-30T03:36:28;12.57;;;11.27;;
19329;SDS011;9799;48.214;16.388;2023-04-30T03:39:49;14.47;;;12.77;;
19329;SDS011;9799;48.214;16.388;2023-04-30T03:43:12;15.80;;;11.90;;
19329;SDS011;9799;48.214;16.388;2023-04-30T03:46:33;12.83;;;11.43;;
19329;SDS011;9799;48.214;16.388;2023-04-30T03:49:54;14.37;;;11.17;;
19329;SDS011;9799;48.214;16.388;2023-04-30T03:53:15;12.83;;;11.40;;
19329;SDS011;9799;48.214;16.388;2023-04-30T03:56:37;14.93;;;12.03;;
19329;SDS011;9799;48.214;16.388;2023-04-30T04:00:00;16.13;;;11.67;;
19329;SDS011;9799;48.214;16.388;2023-04-30T04:03:23;13.50;;;11.17;;
19329;SDS011;9799;48.214;16.388;2023-04-30T04:06:44;15.00;;;11.30;;
19329;SDS011;9799;48.214;16.388;2023-04-30T04:10:06;12.87;;;11.27;;
19329;SDS011;9799;48.214;16.388;2023-04-30T04:13:27;13.13;;;11.23;;
19329;SDS011;9799;48.214;16.388;2023-04-30T04:16:50;14.30;;;12.07;;
19329;SDS011;9799;48.214;16.388;2023-04-30T04:20:11;14.10;;;11.40;;
19329;SDS011;9799;48.214;16.388;2023-04-30T04:23:32;13.77;;;11.83;;
19329;SDS011;9799;48.214;16.388;2023-04-30T04:26:53;15.53;;;11.50;;
19329;SDS011;9799;48.214;16.388;2023-04-30T04:30:15;14.63;;;11.73;;
19329;SDS011;9799;48.214;16.388;2023-04-30T04:33:37;14.13;;;12.23;;
19329;SDS011;9799;48.214;16.388;2023-04-30T04:36:59;14.17;;;10.90;;
19329;SDS011;9799;48.214;16.388;2023-04-30T04:40:20;14.90;;;11.13;;
19329;SDS011;9799;48.214;16.388;2023-04-30T04:43:41;12.53;;;11.20;;
19329;SDS011;9799;48.214;16.388;2023-04-30T04:47:02;12.53;;;11.23;;
19329;SDS011;9799;48.214;16.388;2023-04-30T04:50:25;15.43;;;11.53;;
19329;SDS011;9799;48.214;16.388;2023-04-30T04:53:46;12.03;;;10.57;;
19329;SDS011;9799;48.214;16.388;2023-04-30T04:57:07;13.83;;;11.27;;
19329;SDS011;9799;48.214;16.388;2023-04-30T05:00:28;12.43;;;11.13;;
19329;SDS011;9799;48.214;16.388;2023-04-30T05:03:49;12.63;;;11.20;;
19329;SDS011;9799;48.214;16.388;2023-04-30T05:07:13;11.63;;;10.43;;
19329;SDS011;9799;48.214;16.388;2023-04-30T05:10:34;15.03;;;10.93;;
19329;SDS011;9799;48.214;16.388;2023-04-30T05:13:55;11.93;;;10.73;;
19329;SDS011;9799;48.214;16.388;2023-04-30T05:17:16;13.20;;;10.63;;
19329;SDS011;9799;48.214;16.388;2023-04-30T05:20:37;13.37;;;11.63;;
19329;SDS011;9799;48.214;16.388;2023-04-30T05:24:00;12.00;;;10.53;;
19329;SDS011;9799;48.214;16.388;2023-04-30T05:27:21;11.47;;;10.33;;
19329;SDS011;9799;48.214;16.388;2023-04-30T05:30:43;12.33;;;10.70;;
19329;SDS011;9799;48.214;16.388;2023-04-30T05:34:04;14.53;;;11.87;;
19329;SDS011;9799;48.214;16.388;2023-04-30T05:37:25;12.07;;;10.77;;
19329;SDS011;9799;48.214;16.388;2023-04-30T05:40:48;12.00;;;10.57;;
19329;SDS011;9799;48.214;16.388;2023-04-30T05:44:09;12.33;;;11.03;;
19329;SDS011;9799;48.214;16.388;2023-04-30T05:47:31;14.93;;;11.13;;
19329;SDS011;9799;48.214;16.388;2023-04-30T05:50:52;15.17;;;11.10;;
19329;SDS011;9799;48.214;16.388;2023-04-30T05:54:13;15.27;;;11.87;;
19329;SDS011;9799;48.214;16.388;2023-04-30T05:57:35;12.40;;;11.10;;
19329;SDS011;9799;48.214;16.388;2023-04-30T06:00:57;13.90;;;11.60;;
19329;SDS011;9799;48.214;16.388;2023-04-30T06:04:18;12.07;;;10.87;;
19329;SDS011;9799;48.214;16.388;2023-04-30T06:07:39;12.37;;;10.47;;
19329;SDS011;9799;48.214;16.388;2023-04-30T06:11:01;11.87;;;10.67;;
19329;SDS011;9799;48.214;16.388;2023-04-30T06:14:24;12.23;;;10.27;;
19329;SDS011;9799;48.214;16.388;2023-04-30T06:17:46;12.67;;;10.60;;
19329;SDS011;9799;48.214;16.388;2023-04-30T06:21:07;11.57;;;10.37;;
19329;SDS011;9799;48.214;16.388;2023-04-30T06:24:28;13.90;;;10.40;;
19329;SDS011;9799;48.214;16.388;2023-04-30T06:27:49;11.60;;;9.33;;
19329;SDS011;9799;48.214;16.388;2023-04-30T06:31:13;11.33;;;10.20;;
19329;SDS011;9799;48.214;16.388;2023-04-30T06:34:35;13.17;;;9.50;;
19329;SDS011;9799;48.214;16.388;2023-04-30T06:37:56;15.37;;;9.43;;
19329;SDS011;9799;48.214;16.388;2023-04-30T06:41:17;12.67;;;9.90;;
19329;SDS011;9799;48.214;16.388;2023-04-30T06:44:39;10.47;;;9.37;;
19329;SDS011;9799;48.214;16.388;2023-04-30T06:48:01;11.17;;;9.93;;
19329;SDS011;9799;48.214;16.388;2023-04-30T06:51:23;14.60;;;10.00;;
19329;SDS011;9799;48.214;16.388;2023-04-30T06:54:44;13.93;;;9.77;;
19329;SDS011;9799;48.214;16.388;2023-04-30T06:58:06;11.30;;;9.90;;
19329;SDS011;9799;48.214;16.388;2023-04-30T07:01:27;10.43;;;9.27;;
19329;SDS011;9799;48.214;16.388;2023-04-30T07:04:50;13.00;;;10.30;;
19329;SDS011;9799;48.214;16.388;2023-04-30T07:08:10;12.40;;;11.10;;
19329;SDS011;9799;48.214;16.388;2023-04-30T07:11:33;11.37;;;9.53;;
19329;SDS011;9799;48.214;16.388;2023-04-30T07:14:54;11.63;;;8.90;;
19329;SDS011;9799;48.214;16.388;2023-04-30T07:18:15;9.53;;;8.53;;
19329;SDS011;9799;48.214;16.388;2023-04-30T07:21:38;13.00;;;9.17;;
19329;SDS011;9799;48.214;16.388;2023-04-30T07:25:00;10.67;;;9.03;;
19329;SDS011;9799;48.214;16.388;2023-04-30T07:28:21;11.57;;;9.73;;
19329;SDS011;9799;48.214;16.388;2023-04-30T07:31:42;12.47;;;9.83;;
19329;SDS011;9799;48.214;16.388;2023-04-30T07:35:04;11.90;;;8.33;;
19329;SDS011;9799;48.214;16.388;2023-04-30T07:38:27;10.57;;;9.10;;
19329;SDS011;9799;48.214;16.388;2023-04-30T07:41:48;11.53;;;8.20;;
19329;SDS011;9799;48.214;16.388;2023-04-30T07:45:09;13.97;;;9.50;;
19329;SDS011;9799;48.214;16.388;2023-04-30T07:48:31;14.00;;;9.23;;
19329;SDS011;9799;48.214;16.388;2023-04-30T07:51:53;10.03;;;8.00;;
19329;SDS011;9799;48.214;16.388;2023-04-30T07:55:15;9.73;;;8.70;;
19329;SDS011;9799;48.214;16.388;2023-04-30T07:58:37;10.13;;;8.27;;
19329;SDS011;9799;48.214;16.388;2023-04-30T08:01:58;10.60;;;8.80;;
19329;SDS011;9799;48.214;16.388;2023-04-30T08:05:19;9.43;;;8.50;;
19329;SDS011;9799;48.214;16.388;2023-04-30T08:08:40;9.87;;;8.67;;
19329;SDS011;9799;48.214;16.388;2023-04-30T08:12:03;10.87;;;7.77;;
19329;SDS011;9799;48.214;16.388;2023-04-30T08:15:25;12.40;;;10.37;;
19329;SDS011;9799;48.214;16.388;2023-04-30T08:18:46;12.23;;;10.50;;
19329;SDS011;9799;48.214;16.388;2023-04-30T08:22:08;13.70;;;9.47;;
19329;SDS011;9799;48.214;16.388;2023-04-30T08:25:29;8.83;;;7.93;;
19329;SDS011;9799;48.214;16.388;2023-04-30T08:28:52;10.47;;;8.77;;
19329;SDS011;9799;48.214;16.388;2023-04-30T08:32:13;10.27;;;8.40;;
19329;SDS011;9799;48.214;16.388;2023-04-30T08:35:34;11.53;;;8.97;;
19329;SDS011;9799;48.214;16.388;2023-04-30T08:38:55;10.77;;;8.70;;
19329;SDS011;9799;48.214;16.388;2023-04-30T08:42:16;11.20;;;8.53;;
19329;SDS011;9799;48.214;16.388;2023-04-30T08:45:42;10.33;;;9.23;;
19329;SDS011;9799;48.214;16.388;2023-04-30T08:49:03;11.00;;;9.40;;
19329;SDS011;9799;48.214;16.388;2023-04-30T08:52:25;9.17;;;8.27;;
19329;SDS011;9799;48.214;16.388;2023-04-30T08:55:47;13.13;;;8.60;;
19329;SDS011;9799;48.214;16.388;2023-04-30T08:59:09;11.60;;;8.47;;
19329;SDS011;9799;48.214;16.388;2023-04-30T09:02:32;8.93;;;8.03;;
19329;SDS011;9799;48.214;16.388;2023-04-30T09:05:54;10.50;;;7.83;;
19329;SDS011;9799;48.214;16.388;2023-04-30T09:09:15;10.07;;;7.90;;
19329;SDS011;9799;48.214;16.388;2023-04-30T09:12:36;10.40;;;8.03;;
19329;SDS011;9799;48.214;16.388;2023-04-30T09:15:58;7.87;;;7.00;;
19329;SDS011;9799;48.214;16.388;2023-04-30T09:19:24;9.27;;;8.27;;
19329;SDS011;9799;48.214;16.388;2023-04-30T09:22:46;11.13;;;7.50;;
19329;SDS011;9799;48.214;16.388;2023-04-30T09:26:16;8.73;;;7.70;;
19329;SDS011;9799;48.214;16.388;2023-04-30T09:29:40;9.10;;;7.97;;
19329;SDS011;9799;48.214;16.388;2023-04-30T09:33:01;9.67;;;7.70;;
19329;SDS011;9799;48.214;16.388;2023-04-30T09:36:24;10.13;;;8.23;;
19329;SDS011;9799;48.214;16.388;2023-04-30T09:39:46;16.90;;;8.30;;
19329;SDS011;9799;48.214;16.388;2023-04-30T09:43:09;11.90;;;8.83;;
19329;SDS011;9799;48.214;16.388;2023-04-30T09:46:30;10.13;;;7.70;;
19329;SDS011;9799;48.214;16.388;2023-04-30T09:49:52;10.37;;;8.60;;
19329;SDS011;9799;48.214;16.388;2023-04-30T09:53:15;10.47;;;8.47;;
19329;SDS011;9799;48.214;16.388;2023-04-30T09:56:37;9.80;;;8.80;;
19329;SDS011;9799;48.214;16.388;2023-04-30T09:59:59;10.17;;;7.70;;
19329;SDS011;9799;48.214;16.388;2023-04-30T10:03:20;10.50;;;8.20;;
19329;SDS011;9799;48.214;16.388;2023-04-30T10:06:43;12.27;;;7.80;;
19329;SDS011;9799;48.214;16.388;2023-04-30T10:10:08;8.70;;;7.80;;
19329;SDS011;9799;48.214;16.388;2023-04-30T10:13:30;9.23;;;8.27;;
19329;SDS011;9799;48.214;16.388;2023-04-30T10:16:56;9.60;;;7.70;;
19329;SDS011;9799;48.214;16.388;2023-04-30T10:20:21;10.77;;;8.77;;
19329;SDS011;9799;48.214;16.388;2023-04-30T10:23:45;9.60;;;7.03;;
19329;SDS011;9799;48.214;16.388;2023-04-30T10:27:09;8.30;;;7.30;;
19329;SDS011;9799;48.214;16.388;2023-04-30T10:30:31;9.63;;;8.33;;
19329;SDS011;9799;48.214;16.388;2023-04-30T10:33:57;8.63;;;7.70;;
19329;SDS011;9799;48.214;16.388;2023-04-30T10:37:26;9.83;;;8.37;;
19329;SDS011;9799;48.214;16.388;2023-04-30T10:40:54;10.10;;;8.93;;
19329;SDS011;9799;48.214;16.388;2023-04-30T10:44:21;11.43;;;7.40;;
19329;SDS011;9799;48.214;16.388;2023-04-30T10:47:45;9.77;;;8.33;;
19329;SDS011;9799;48.214;16.388;2023-04-30T10:51:07;10.40;;;8.97;;
19329;SDS011;9799;48.214;16.388;2023-04-30T10:54:29;8.80;;;7.90;;
19329;SDS011;9799;48.214;16.388;2023-04-30T10:57:52;10.27;;;8.33;;
19329;SDS011;9799;48.214;16.388;2023-04-30T11:01:15;9.20;;;8.27;;
19329;SDS011;9799;48.214;16.388;2023-04-30T11:08:32;9.70;;;8.70;;
19329;SDS011;9799;48.214;16.388;2023-04-30T11:12:00;9.57;;;8.67;;
19329;SDS011;9799;48.214;16.388;2023-04-30T11:15:24;10.43;;;8.73;;
19329;SDS011;9799;48.214;16.388;2023-04-30T11:18:47;12.47;;;8.97;;
19329;SDS011;9799;48.214;16.388;2023-04-30T11:22:15;8.93;;;8.13;;
19329;SDS011;9799;48.214;16.388;2023-04-30T11:25:41;11.10;;;9.37;;
19329;SDS011;9799;48.214;16.388;2023-04-30T11:29:04;10.60;;;9.60;;
19329;SDS011;9799;48.214;16.388;2023-04-30T11:32:25;9.77;;;8.77;;
19329;SDS011;9799;48.214;16.388;2023-04-30T11:35:54;10.60;;;9.50;;
19329;SDS011;9799;48.214;16.388;2023-04-30T11:39:16;9.40;;;8.53;;
19329;SDS011;9799;48.214;16.388;2023-04-30T11:42:39;9.90;;;9.00;;
19329;SDS011;9799;48.214;16.388;2023-04-30T11:46:03;10.30;;;8.90;;
19329;SDS011;9799;48.214;16.388;2023-04-30T11:49:26;12.03;;;9.77;;
19329;SDS011;9799;48.214;16.388;2023-04-30T11:52:49;10.77;;;9.50;;
19329;SDS011;9799;48.214;16.388;2023-04-30T11:56:11;11.80;;;9.97;;
19329;SDS011;9799;48.214;16.388;2023-04-30T11:59:38;11.97;;;10.60;;
19329;SDS011;9799;48.214;16.388;2023-04-30T12:03:00;11.47;;;10.37;;
19329;SDS011;9799;48.214;16.388;2023-04-30T12:06:23;13.10;;;10.67;;
19329;SDS011;9799;48.214;16.388;2023-04-30T12:09:51;11.53;;;10.33;;
19329;SDS011;9799;48.214;16.388;2023-04-30T12:13:13;12.40;;;11.03;;
19329;SDS011;9799;48.214;16.388;2023-04-30T12:16:39;12.80;;;10.63;;
19329;SDS011;9799;48.214;16.388;2023-04-30T12:20:02;11.27;;;9.50;;
19329;SDS011;9799;48.214;16.388;2023-04-30T12:23:24;10.30;;;9.20;;
19329;SDS011;9799;48.214;16.388;2023-04-30T12:26:46;9.60;;;8.70;;
19329;SDS011;9799;48.214;16.388;2023-04-30T12:30:08;11.50;;;9.33;;
19329;SDS011;9799;48.214;16.388;2023-04-30T12:33:30;13.07;;;8.87;;
19329;SDS011;9799;48.214;16.388;2023-04-30T12:36:51;9.10;;;8.13;;
19329;SDS011;9799;48.214;16.388;2023-04-30T12:40:13;9.10;;;7.53;;
19329;SDS011;9799;48.214;16.388;2023-04-30T12:43:36;9.07;;;8.17;;
19329;SDS011;9799;48.214;16.388;2023-04-30T12:46:57;8.03;;;7.30;;
19329;SDS011;9799;48.214;16.388;2023-04-30T12:50:19;9.20;;;8.27;;
19329;SDS011;9799;48.214;16.388;2023-04-30T12:53:43;8.60;;;7.67;;
19329;SDS011;9799;48.214;16.388;2023-04-30T12:57:06;9.80;;;8.20;;
19329;SDS011;9799;48.214;16.388;2023-04-30T13:00:30;10.00;;;7.57;;
19329;SDS011;9799;48.214;16.388;2023-04-30T13:04:06;9.40;;;8.50;;
19329;SDS011;9799;48.214;16.388;2023-04-30T13:07:35;9.30;;;8.40;;
19329;SDS011;9799;48.214;16.388;2023-04-30T13:10:58;9.77;;;7.73;;
19329;SDS011;9799;48.214;16.388;2023-04-30T13:14:19;11.23;;;8.53;;
19329;SDS011;9799;48.214;16.388;2023-04-30T13:17:41;9.50;;;7.60;;
19329;SDS011;9799;48.214;16.388;2023-04-30T13:21:02;9.67;;;6.57;;
19329;SDS011;9799;48.214;16.388;2023-04-30T13:24:24;7.00;;;6.27;;
19329;SDS011;9799;48.214;16.388;2023-04-30T13:27:45;6.97;;;6.37;;
19329;SDS011;9799;48.214;16.388;2023-04-30T13:31:06;8.90;;;8.00;;
19329;SDS011;9799;48.214;16.388;2023-04-30T13:34:29;9.43;;;8.40;;
19329;SDS011;9799;48.214;16.388;2023-04-30T13:37:50;8.93;;;7.90;;
19329;SDS011;9799;48.214;16.388;2023-04-30T13:41:11;11.20;;;7.97;;
19329;SDS011;9799;48.214;16.388;2023-04-30T13:44:33;10.20;;;8.40;;
19329;SDS011;9799;48.214;16.388;2023-04-30T13:47:54;8.10;;;7.40;;
19329;SDS011;9799;48.214;16.388;2023-04-30T13:51:17;7.40;;;6.80;;
19329;SDS011;9799;48.214;16.388;2023-04-30T13:54:39;7.57;;;6.87;;
19329;SDS011;9799;48.214;16.388;2023-04-30T13:58:00;9.43;;;7.13;;
19329;SDS011;9799;48.214;16.388;2023-04-30T14:01:21;7.53;;;6.83;;
19329;SDS011;9799;48.214;16.388;2023-04-30T14:04:43;8.83;;;6.50;;
19329;SDS011;9799;48.214;16.388;2023-04-30T14:08:05;8.30;;;6.80;;
19329;SDS011;9799;48.214;16.388;2023-04-30T14:11:26;7.93;;;6.23;;
19329;SDS011;9799;48.214;16.388;2023-04-30T14:14:47;6.50;;;5.90;;
19329;SDS011;9799;48.214;16.388;2023-04-30T14:18:09;7.07;;;6.40;;
19329;SDS011;9799;48.214;16.388;2023-04-30T14:21:30;10.37;;;7.10;;
19329;SDS011;9799;48.214;16.388;2023-04-30T14:24:53;12.13;;;8.27;;
19329;SDS011;9799;48.214;16.388;2023-04-30T14:28:14;7.88;;;7.18;;
19329;SDS011;9799;48.214;16.388;2023-04-30T14:31:35;11.13;;;7.93;;
19329;SDS011;9799;48.214;16.388;2023-04-30T14:34:56;7.90;;;7.20;;
19329;SDS011;9799;48.214;16.388;2023-04-30T14:38:17;7.63;;;6.93;;
19329;SDS011;9799;48.214;16.388;2023-04-30T14:41:40;7.37;;;6.40;;
19329;SDS011;9799;48.214;16.388;2023-04-30T14:45:01;7.80;;;7.10;;
19329;SDS011;9799;48.214;16.388;2023-04-30T14:48:23;7.40;;;6.57;;
19329;SDS011;9799;48.214;16.388;2023-04-30T14:51:44;7.00;;;6.30;;
19329;SDS011;9799;48.214;16.388;2023-04-30T14:55:06;6.63;;;6.03;;
19329;SDS011;9799;48.214;16.388;2023-04-30T14:58:29;6.43;;;5.83;;
19329;SDS011;9799;48.214;16.388;2023-04-30T15:01:50;7.07;;;5.27;;
19329;SDS011;9799;48.214;16.388;2023-04-30T15:05:11;6.83;;;4.83;;
19329;SDS011;9799;48.214;16.388;2023-04-30T15:08:32;6.43;;;5.10;;
19329;SDS011;9799;48.214;16.388;2023-04-30T15:11:54;5.23;;;4.73;;
19329;SDS011;9799;48.214;16.388;2023-04-30T15:15:16;5.33;;;4.83;;
19329;SDS011;9799;48.214;16.388;2023-04-30T15:18:39;5.40;;;4.90;;
19329;SDS011;9799;48.214;16.388;2023-04-30T15:22:00;5.70;;;5.10;;
19329;SDS011;9799;48.214;16.388;2023-04-30T15:25:22;6.07;;;5.47;;
19329;SDS011;9799;48.214;16.388;2023-04-30T15:28:43;7.70;;;5.57;;
19329;SDS011;9799;48.214;16.388;2023-04-30T15:32:06;5.93;;;5.38;;
19329;SDS011;9799;48.214;16.388;2023-04-30T15:35:27;5.72;;;5.15;;
19329;SDS011;9799;48.214;16.388;2023-04-30T15:38:48;5.95;;;5.35;;
19329;SDS011;9799;48.214;16.388;2023-04-30T15:42:09;6.32;;;5.60;;
19329;SDS011;9799;48.214;16.388;2023-04-30T15:45:31;7.30;;;5.72;;
19329;SDS011;9799;48.214;16.388;2023-04-30T15:48:54;6.25;;;5.53;;
19329;SDS011;9799;48.214;16.388;2023-04-30T15:52:15;8.43;;;7.37;;
19329;SDS011;9799;48.214;16.388;2023-04-30T15:55:36;7.37;;;6.67;;
19329;SDS011;9799;48.214;16.388;2023-04-30T15:58:58;10.43;;;9.07;;
19329;SDS011;9799;48.214;16.388;2023-04-30T16:02:19;7.53;;;6.82;;
19329;SDS011;9799;48.214;16.388;2023-04-30T16:05:41;7.37;;;6.60;;
19329;SDS011;9799;48.214;16.388;2023-04-30T16:09:03;7.33;;;5.47;;
19329;SDS011;9799;48.214;16.388;2023-04-30T16:12:26;6.53;;;5.90;;
19329;SDS011;9799;48.214;16.388;2023-04-30T16:15:47;6.30;;;5.67;;
19329;SDS011;9799;48.214;16.388;2023-04-30T16:19:08;6.10;;;5.60;;
19329;SDS011;9799;48.214;16.388;2023-04-30T16:22:31;6.63;;;6.03;;
19329;SDS011;9799;48.214;16.388;2023-04-30T16:25:53;7.83;;;5.93;;
19329;SDS011;9799;48.214;16.388;2023-04-30T16:29:14;6.33;;;5.83;;
19329;SDS011;9799;48.214;16.388;2023-04-30T16:32:35;6.13;;;5.47;;
19329;SDS011;9799;48.214;16.388;2023-04-30T16:35:57;10.43;;;6.20;;
19329;SDS011;9799;48.214;16.388;2023-04-30T16:39:19;7.17;;;6.47;;
19329;SDS011;9799;48.214;16.388;2023-04-30T16:42:40;9.20;;;6.43;;
19329;SDS011;9799;48.214;16.388;2023-04-30T16:46:03;7.27;;;6.00;;
19329;SDS011;9799;48.214;16.388;2023-04-30T16:49:24;6.37;;;5.77;;
19329;SDS011;9799;48.214;16.388;2023-04-30T16:52:45;6.93;;;5.97;;
19329;SDS011;9799;48.214;16.388;2023-04-30T16:56:08;8.97;;;5.97;;
19329;SDS011;9799;48.214;16.388;2023-04-30T16:59:30;6.70;;;5.77;;
19329;SDS011;9799;48.214;16.388;2023-04-30T17:02:51;8.23;;;6.40;;
19329;SDS011;9799;48.214;16.388;2023-04-30T17:06:12;5.87;;;5.37;;
19329;SDS011;9799;48.214;16.388;2023-04-30T17:09:33;6.70;;;5.83;;
19329;SDS011;9799;48.214;16.388;2023-04-30T17:12:56;7.13;;;5.70;;
19329;SDS011;9799;48.214;16.388;2023-04-30T17:16:20;6.93;;;5.93;;
19329;SDS011;9799;48.214;16.388;2023-04-30T17:19:41;6.63;;;5.97;;
19329;SDS011;9799;48.214;16.388;2023-04-30T17:23:02;7.73;;;5.83;;
19329;SDS011;9799;48.214;16.388;2023-04-30T17:26:24;6.27;;;5.67;;
19329;SDS011;9799;48.214;16.388;2023-04-30T17:29:46;5.87;;;5.30;;
19329;SDS011;9799;48.214;16.388;2023-04-30T17:33:09;6.83;;;6.23;;
19329;SDS011;9799;48.214;16.388;2023-04-30T17:36:30;7.60;;;6.33;;
19329;SDS011;9799;48.214;16.388;2023-04-30T17:39:52;6.57;;;5.97;;
19329;SDS011;9799;48.214;16.388;2023-04-30T17:43:16;6.57;;;5.93;;
19329;SDS011;9799;48.214;16.388;2023-04-30T17:46:39;7.60;;;6.67;;
19329;SDS011;9799;48.214;16.388;2023-04-30T17:50:00;7.67;;;6.97;;
19329;SDS011;9799;48.214;16.388;2023-04-30T17:53:26;7.07;;;6.37;;
19329;SDS011;9799;48.214;16.388;2023-04-30T17:56:49;6.80;;;6.20;;
19329;SDS011;9799;48.214;16.388;2023-04-30T18:00:12;7.83;;;7.03;;
19329;SDS011;9799;48.214;16.388;2023-04-30T18:03:36;7.43;;;6.70;;
19329;SDS011;9799;48.214;16.388;2023-04-30T18:06:58;7.37;;;6.50;;
19329;SDS011;9799;48.214;16.388;2023-04-30T18:10:19;7.20;;;6.50;;
19329;SDS011;9799;48.214;16.388;2023-04-30T18:13:41;7.87;;;7.07;;
19329;SDS011;9799;48.214;16.388;2023-04-30T18:17:03;9.00;;;6.73;;
19329;SDS011;9799;48.214;16.388;2023-04-30T18:20:26;9.40;;;7.30;;
19329;SDS011;9799;48.214;16.388;2023-04-30T18:23:47;13.50;;;7.57;;
19329;SDS011;9799;48.214;16.388;2023-04-30T18:27:08;8.40;;;7.50;;
19329;SDS011;9799;48.214;16.388;2023-04-30T18:30:30;9.27;;;7.80;;
19329;SDS011;9799;48.214;16.388;2023-04-30T18:33:53;8.57;;;7.60;;
19329;SDS011;9799;48.214;16.388;2023-04-30T18:37:16;8.53;;;7.63;;
19329;SDS011;9799;48.214;16.388;2023-04-30T18:40:37;12.17;;;8.50;;
19329;SDS011;9799;48.214;16.388;2023-04-30T18:43:59;9.83;;;8.77;;
19329;SDS011;9799;48.214;16.388;2023-04-30T18:47:20;9.90;;;8.63;;
19329;SDS011;9799;48.214;16.388;2023-04-30T18:50:41;9.77;;;8.87;;
19329;SDS011;9799;48.214;16.388;2023-04-30T18:54:03;9.87;;;8.87;;
19329;SDS011;9799;48.214;16.388;2023-04-30T18:57:25;10.20;;;8.87;;
19329;SDS011;9799;48.214;16.388;2023-04-30T19:00:46;10.80;;;9.37;;
19329;SDS011;9799;48.214;16.388;2023-04-30T19:04:09;11.20;;;9.20;;
19329;SDS011;9799;48.214;16.388;2023-04-30T19:07:33;13.80;;;9.40;;
19329;SDS011;9799;48.214;16.388;2023-04-30T19:10:58;10.70;;;9.60;;
19329;SDS011;9799;48.214;16.388;2023-04-30T19:14:19;13.27;;;10.00;;
19329;SDS011;9799;48.214;16.388;2023-04-30T19:17:41;12.50;;;11.20;;
19329;SDS011;9799;48.214;16.388;2023-04-30T19:21:02;10.27;;;9.30;;
19329;SDS011;9799;48.214;16.388;2023-04-30T19:24:24;11.33;;;10.13;;
19329;SDS011;9799;48.214;16.388;2023-04-30T19:27:47;10.93;;;9.67;;
19329;SDS011;9799;48.214;16.388;2023-04-30T19:31:08;11.73;;;10.50;;
19329;SDS011;9799;48.214;16.388;2023-04-30T19:34:32;11.37;;;10.10;;
19329;SDS011;9799;48.214;16.388;2023-04-30T19:37:54;11.63;;;9.63;;
19329;SDS011;9799;48.214;16.388;2023-04-30T19:41:16;10.60;;;9.50;;
19329;SDS011;9799;48.214;16.388;2023-04-30T19:44:38;11.20;;;9.73;;
19329;SDS011;9799;48.214;16.388;2023-04-30T19:48:01;13.03;;;10.53;;
19329;SDS011;9799;48.214;16.388;2023-04-30T19:51:24;12.00;;;9.43;;
19329;SDS011;9799;48.214;16.388;2023-04-30T19:54:49;11.97;;;9.70;;
19329;SDS011;9799;48.214;16.388;2023-04-30T19:58:11;11.43;;;10.33;;
19329;SDS011;9799;48.214;16.388;2023-04-30T20:01:37;13.73;;;10.53;;
19329;SDS011;9799;48.214;16.388;2023-04-30T20:05:00;15.10;;;11.37;;
19329;SDS011;9799;48.214;16.388;2023-04-30T20:08:22;16.00;;;11.93;;